sensor_id;sensor_type;location;lat;lon;timestamp;temperature;humidity
67759;SHT31;54562;47.620;18.786;2022-10-16T00:01:42;14.58;68.03
67759;SHT31;54562;47.620;18.786;2022-10-16T00:04:51;14.56;68.05
67759;SHT31;54562;47.620;18.786;2022-10-16T00:07:59;14.53;68.15
67759;SHT31;54562;47.620;18.786;2022-10-16T00:14:13;14.42;68.24
67759;SHT31;54562;47.620;18.786;2022-10-16T00:17:21;14.38;68.34
67759;SHT31;54562;47.620;18.786;2022-10-16T00:20:30;14.33;68.44
67759;SHT31;54562;47.620;18.786;2022-10-16T00:23:40;14.28;68.53
67759;SHT31;54562;47.620;18.786;2022-10-16T00:26:49;14.24;68.62
67759;SHT31;54562;47.620;18.786;2022-10-16T00:29:58;14.20;68.74
67759;SHT31;54562;47.620;18.786;2022-10-16T00:33:06;14.13;68.84
67759;SHT31;54562;47.620;18.786;2022-10-16T00:36:15;14.09;68.88
67759;SHT31;54562;47.620;18.786;2022-10-16T00:39:25;14.05;69.00
67759;SHT31;54562;47.620;18.786;2022-10-16T00:42:34;14.01;69.12
67759;SHT31;54562;47.620;18.786;2022-10-16T00:45:42;13.97;69.19
67759;SHT31;54562;47.620;18.786;2022-10-16T00:48:54;13.92;69.20
67759;SHT31;54562;47.620;18.786;2022-10-16T00:52:07;13.89;69.28
67759;SHT31;54562;47.620;18.786;2022-10-16T00:55:16;13.86;69.33
67759;SHT31;54562;47.620;18.786;2022-10-16T00:58:25;13.82;69.38
67759;SHT31;54562;47.620;18.786;2022-10-16T01:01:33;13.76;69.47
67759;SHT31;54562;47.620;18.786;2022-10-16T01:04:42;13.69;69.53
67759;SHT31;54562;47.620;18.786;2022-10-16T01:07:56;13.64;69.63
67759;SHT31;54562;47.620;18.786;2022-10-16T01:11:17;13.55;69.84
67759;SHT31;54562;47.620;18.786;2022-10-16T01:14:34;13.48;69.98
67759;SHT31;54562;47.620;18.786;2022-10-16T01:17:53;13.46;70.10
67759;SHT31;54562;47.620;18.786;2022-10-16T01:21:10;13.41;70.22
67759;SHT31;54562;47.620;18.786;2022-10-16T01:24:31;13.39;70.32
67759;SHT31;54562;47.620;18.786;2022-10-16T01:27:53;13.36;70.43
67759;SHT31;54562;47.620;18.786;2022-10-16T01:31:04;13.31;70.39
67759;SHT31;54562;47.620;18.786;2022-10-16T01:34:14;13.29;70.48
67759;SHT31;54562;47.620;18.786;2022-10-16T01:37:29;13.26;70.50
67759;SHT31;54562;47.620;18.786;2022-10-16T01:40:46;13.19;70.58
67759;SHT31;54562;47.620;18.786;2022-10-16T01:44:03;13.14;70.69
67759;SHT31;54562;47.620;18.786;2022-10-16T01:47:18;13.10;70.79
67759;SHT31;54562;47.620;18.786;2022-10-16T01:50:30;13.04;70.97
67759;SHT31;54562;47.620;18.786;2022-10-16T01:53:43;12.98;71.16
67759;SHT31;54562;47.620;18.786;2022-10-16T01:56:57;12.87;71.33
67759;SHT31;54562;47.620;18.786;2022-10-16T02:00:10;12.79;71.57
67759;SHT31;54562;47.620;18.786;2022-10-16T02:03:21;12.69;71.94
67759;SHT31;54562;47.620;18.786;2022-10-16T02:06:29;12.61;72.15
67759;SHT31;54562;47.620;18.786;2022-10-16T02:09:39;12.51;72.41
67759;SHT31;54562;47.620;18.786;2022-10-16T02:12:48;12.42;72.59
67759;SHT31;54562;47.620;18.786;2022-10-16T02:16:04;12.34;72.79
67759;SHT31;54562;47.620;18.786;2022-10-16T02:19:15;12.27;72.95
67759;SHT31;54562;47.620;18.786;2022-10-16T02:22:28;12.21;73.11
67759;SHT31;54562;47.620;18.786;2022-10-16T02:25:40;12.14;73.27
67759;SHT31;54562;47.620;18.786;2022-10-16T02:28:52;12.06;73.47
67759;SHT31;54562;47.620;18.786;2022-10-16T02:32:09;12.01;73.63
67759;SHT31;54562;47.620;18.786;2022-10-16T02:35:20;11.97;73.86
67759;SHT31;54562;47.620;18.786;2022-10-16T02:38:30;11.91;73.96
67759;SHT31;54562;47.620;18.786;2022-10-16T02:41:39;11.85;74.15
67759;SHT31;54562;47.620;18.786;2022-10-16T02:44:47;11.79;74.23
67759;SHT31;54562;47.620;18.786;2022-10-16T02:47:56;11.74;74.32
67759;SHT31;54562;47.620;18.786;2022-10-16T02:51:04;11.70;74.45
67759;SHT31;54562;47.620;18.786;2022-10-16T02:54:14;11.66;74.46
67759;SHT31;54562;47.620;18.786;2022-10-16T02:57:22;11.63;74.64
67759;SHT31;54562;47.620;18.786;2022-10-16T03:00:30;11.60;74.68
67759;SHT31;54562;47.620;18.786;2022-10-16T03:03:39;11.58;74.69
67759;SHT31;54562;47.620;18.786;2022-10-16T03:06:47;11.54;74.74
67759;SHT31;54562;47.620;18.786;2022-10-16T03:09:56;11.45;74.82
67759;SHT31;54562;47.620;18.786;2022-10-16T03:13:04;11.37;75.04
67759;SHT31;54562;47.620;18.786;2022-10-16T03:16:12;11.32;75.07
67759;SHT31;54562;47.620;18.786;2022-10-16T03:19:20;11.28;75.25
67759;SHT31;54562;47.620;18.786;2022-10-16T03:22:29;11.24;75.47
67759;SHT31;54562;47.620;18.786;2022-10-16T03:25:37;11.17;75.58
67759;SHT31;54562;47.620;18.786;2022-10-16T03:28:45;11.13;75.79
67759;SHT31;54562;47.620;18.786;2022-10-16T03:31:53;11.07;75.88
67759;SHT31;54562;47.620;18.786;2022-10-16T03:35:02;11.03;76.03
67759;SHT31;54562;47.620;18.786;2022-10-16T03:38:11;11.00;76.21
67759;SHT31;54562;47.620;18.786;2022-10-16T03:41:20;10.98;76.29
67759;SHT31;54562;47.620;18.786;2022-10-16T03:44:29;10.94;76.39
67759;SHT31;54562;47.620;18.786;2022-10-16T03:47:38;10.92;76.50
67759;SHT31;54562;47.620;18.786;2022-10-16T03:50:47;10.90;76.51
67759;SHT31;54562;47.620;18.786;2022-10-16T03:53:56;10.87;76.53
67759;SHT31;54562;47.620;18.786;2022-10-16T03:57:05;10.83;76.68
67759;SHT31;54562;47.620;18.786;2022-10-16T04:00:14;10.79;76.75
67759;SHT31;54562;47.620;18.786;2022-10-16T04:03:23;10.76;76.74
67759;SHT31;54562;47.620;18.786;2022-10-16T04:06:31;10.75;76.81
67759;SHT31;54562;47.620;18.786;2022-10-16T04:09:40;10.73;76.89
67759;SHT31;54562;47.620;18.786;2022-10-16T04:12:48;10.69;76.92
67759;SHT31;54562;47.620;18.786;2022-10-16T04:16:00;10.66;76.88
67759;SHT31;54562;47.620;18.786;2022-10-16T04:19:10;10.65;76.81
67759;SHT31;54562;47.620;18.786;2022-10-16T04:22:19;10.63;76.77
67759;SHT31;54562;47.620;18.786;2022-10-16T04:25:33;10.60;76.77
67759;SHT31;54562;47.620;18.786;2022-10-16T04:28:41;10.56;76.78
67759;SHT31;54562;47.620;18.786;2022-10-16T04:31:50;10.52;76.93
67759;SHT31;54562;47.620;18.786;2022-10-16T04:34:58;10.47;77.01
67759;SHT31;54562;47.620;18.786;2022-10-16T04:38:08;10.43;77.07
67759;SHT31;54562;47.620;18.786;2022-10-16T04:41:17;10.39;77.13
67759;SHT31;54562;47.620;18.786;2022-10-16T04:44:25;10.34;77.26
67759;SHT31;54562;47.620;18.786;2022-10-16T04:47:35;10.28;77.40
67759;SHT31;54562;47.620;18.786;2022-10-16T04:50:44;10.25;77.53
67759;SHT31;54562;47.620;18.786;2022-10-16T04:53:57;10.22;77.57
67759;SHT31;54562;47.620;18.786;2022-10-16T04:57:07;10.19;77.70
67759;SHT31;54562;47.620;18.786;2022-10-16T05:00:16;10.16;77.66
67759;SHT31;54562;47.620;18.786;2022-10-16T05:03:26;10.16;77.74
67759;SHT31;54562;47.620;18.786;2022-10-16T05:06:35;10.17;77.80
67759;SHT31;54562;47.620;18.786;2022-10-16T05:09:45;10.17;77.88
67759;SHT31;54562;47.620;18.786;2022-10-16T05:12:55;10.17;78.07
67759;SHT31;54562;47.620;18.786;2022-10-16T05:19:10;10.19;78.00
67759;SHT31;54562;47.620;18.786;2022-10-16T05:22:34;10.19;78.00
67759;SHT31;54562;47.620;18.786;2022-10-16T05:25:43;10.20;78.00
67759;SHT31;54562;47.620;18.786;2022-10-16T05:28:58;10.19;78.09
67759;SHT31;54562;47.620;18.786;2022-10-16T05:32:07;10.21;78.09
67759;SHT31;54562;47.620;18.786;2022-10-16T05:35:16;10.22;78.08
67759;SHT31;54562;47.620;18.786;2022-10-16T05:38:26;10.25;78.20
67759;SHT31;54562;47.620;18.786;2022-10-16T05:41:34;10.27;78.26
67759;SHT31;54562;47.620;18.786;2022-10-16T05:44:43;10.28;78.41
67759;SHT31;54562;47.620;18.786;2022-10-16T05:47:51;10.34;78.50
67759;SHT31;54562;47.620;18.786;2022-10-16T05:51:02;10.42;78.52
67759;SHT31;54562;47.620;18.786;2022-10-16T05:54:10;10.50;78.52
67759;SHT31;54562;47.620;18.786;2022-10-16T05:57:18;10.59;78.48
67759;SHT31;54562;47.620;18.786;2022-10-16T06:00:28;10.73;78.33
67759;SHT31;54562;47.620;18.786;2022-10-16T06:03:36;10.90;78.19
67759;SHT31;54562;47.620;18.786;2022-10-16T06:06:45;11.07;77.98
67759;SHT31;54562;47.620;18.786;2022-10-16T06:09:53;11.26;77.71
67759;SHT31;54562;47.620;18.786;2022-10-16T06:13:01;11.47;77.44
67759;SHT31;54562;47.620;18.786;2022-10-16T06:16:10;11.65;77.21
67759;SHT31;54562;47.620;18.786;2022-10-16T06:19:18;11.82;76.93
67759;SHT31;54562;47.620;18.786;2022-10-16T06:22:28;11.99;76.63
67759;SHT31;54562;47.620;18.786;2022-10-16T06:25:38;12.16;76.46
67759;SHT31;54562;47.620;18.786;2022-10-16T06:28:46;12.32;76.03
67759;SHT31;54562;47.620;18.786;2022-10-16T06:31:55;12.44;75.67
67759;SHT31;54562;47.620;18.786;2022-10-16T06:35:03;12.57;75.38
67759;SHT31;54562;47.620;18.786;2022-10-16T06:38:14;12.70;75.03
67759;SHT31;54562;47.620;18.786;2022-10-16T06:41:24;12.82;74.56
67759;SHT31;54562;47.620;18.786;2022-10-16T06:44:33;12.93;74.59
67759;SHT31;54562;47.620;18.786;2022-10-16T06:47:44;13.07;74.45
67759;SHT31;54562;47.620;18.786;2022-10-16T06:50:58;13.21;74.25
67759;SHT31;54562;47.620;18.786;2022-10-16T06:54:10;13.32;73.73
67759;SHT31;54562;47.620;18.786;2022-10-16T06:57:18;13.42;73.68
67759;SHT31;54562;47.620;18.786;2022-10-16T07:00:27;13.54;73.22
67759;SHT31;54562;47.620;18.786;2022-10-16T07:03:37;13.63;73.16
67759;SHT31;54562;47.620;18.786;2022-10-16T07:06:47;13.73;72.71
67759;SHT31;54562;47.620;18.786;2022-10-16T07:09:55;13.81;72.53
67759;SHT31;54562;47.620;18.786;2022-10-16T07:13:03;13.90;72.22
67759;SHT31;54562;47.620;18.786;2022-10-16T07:16:12;14.01;72.02
67759;SHT31;54562;47.620;18.786;2022-10-16T07:19:23;14.13;71.88
67759;SHT31;54562;47.620;18.786;2022-10-16T07:22:36;14.22;71.53
67759;SHT31;54562;47.620;18.786;2022-10-16T07:25:44;14.28;71.38
67759;SHT31;54562;47.620;18.786;2022-10-16T07:29:00;14.35;71.15
67759;SHT31;54562;47.620;18.786;2022-10-16T07:32:09;14.46;71.03
67759;SHT31;54562;47.620;18.786;2022-10-16T07:35:18;14.57;70.73
67759;SHT31;54562;47.620;18.786;2022-10-16T07:38:26;14.68;70.29
67759;SHT31;54562;47.620;18.786;2022-10-16T07:41:34;14.76;69.98
67759;SHT31;54562;47.620;18.786;2022-10-16T07:44:42;14.83;69.83
67759;SHT31;54562;47.620;18.786;2022-10-16T07:47:51;14.94;69.53
67759;SHT31;54562;47.620;18.786;2022-10-16T07:51:00;15.02;69.22
67759;SHT31;54562;47.620;18.786;2022-10-16T07:54:10;15.10;69.01
67759;SHT31;54562;47.620;18.786;2022-10-16T07:57:18;15.18;68.82
67759;SHT31;54562;47.620;18.786;2022-10-16T08:00:26;15.27;68.43
67759;SHT31;54562;47.620;18.786;2022-10-16T08:03:34;15.36;68.53
67759;SHT31;54562;47.620;18.786;2022-10-16T08:06:45;15.53;68.62
67759;SHT31;54562;47.620;18.786;2022-10-16T08:09:54;15.71;68.09
67759;SHT31;54562;47.620;18.786;2022-10-16T08:13:03;15.83;67.79
67759;SHT31;54562;47.620;18.786;2022-10-16T08:16:11;15.96;67.72
67759;SHT31;54562;47.620;18.786;2022-10-16T08:19:20;16.09;67.22
67759;SHT31;54562;47.620;18.786;2022-10-16T08:22:28;16.20;66.87
67759;SHT31;54562;47.620;18.786;2022-10-16T08:25:36;16.32;66.58
67759;SHT31;54562;47.620;18.786;2022-10-16T08:28:44;16.45;66.36
67759;SHT31;54562;47.620;18.786;2022-10-16T08:31:56;16.59;66.28
67759;SHT31;54562;47.620;18.786;2022-10-16T08:35:04;16.70;65.50
67759;SHT31;54562;47.620;18.786;2022-10-16T08:38:14;16.74;65.17
67759;SHT31;54562;47.620;18.786;2022-10-16T08:41:26;16.76;65.28
67759;SHT31;54562;47.620;18.786;2022-10-16T08:48:48;17.04;64.03
67759;SHT31;54562;47.620;18.786;2022-10-16T08:51:58;16.94;63.82
67759;SHT31;54562;47.620;18.786;2022-10-16T08:55:08;16.85;63.92
67759;SHT31;54562;47.620;18.786;2022-10-16T08:58:35;16.82;64.03
67759;SHT31;54562;47.620;18.786;2022-10-16T09:01:44;16.83;64.10
67759;SHT31;54562;47.620;18.786;2022-10-16T09:04:56;16.82;63.74
67759;SHT31;54562;47.620;18.786;2022-10-16T09:08:30;16.76;63.11
67759;SHT31;54562;47.620;18.786;2022-10-16T09:11:52;16.86;62.80
67759;SHT31;54562;47.620;18.786;2022-10-16T09:15:14;16.92;62.88
67759;SHT31;54562;47.620;18.786;2022-10-16T09:18:34;17.15;62.90
67759;SHT31;54562;47.620;18.786;2022-10-16T09:21:52;17.33;62.55
67759;SHT31;54562;47.620;18.786;2022-10-16T09:25:10;17.57;62.65
67759;SHT31;54562;47.620;18.786;2022-10-16T09:28:21;17.76;61.71
67759;SHT31;54562;47.620;18.786;2022-10-16T09:31:29;17.95;62.03
67759;SHT31;54562;47.620;18.786;2022-10-16T09:34:41;18.17;61.08
67759;SHT31;54562;47.620;18.786;2022-10-16T09:37:55;18.09;60.42
67759;SHT31;54562;47.620;18.786;2022-10-16T09:41:12;17.99;60.49
67759;SHT31;54562;47.620;18.786;2022-10-16T09:44:24;17.93;60.42
67759;SHT31;54562;47.620;18.786;2022-10-16T09:47:37;17.89;60.27
67759;SHT31;54562;47.620;18.786;2022-10-16T09:50:56;17.82;60.01
67759;SHT31;54562;47.620;18.786;2022-10-16T09:54:14;17.76;60.12
67759;SHT31;54562;47.620;18.786;2022-10-16T09:57:24;17.88;60.13
67759;SHT31;54562;47.620;18.786;2022-10-16T10:00:34;18.02;59.82
67759;SHT31;54562;47.620;18.786;2022-10-16T10:03:45;18.20;60.03
67759;SHT31;54562;47.620;18.786;2022-10-16T10:06:56;18.38;59.69
67759;SHT31;54562;47.620;18.786;2022-10-16T10:10:05;18.58;59.33
67759;SHT31;54562;47.620;18.786;2022-10-16T10:13:28;18.73;59.28
67759;SHT31;54562;47.620;18.786;2022-10-16T10:16:36;18.87;58.78
67759;SHT31;54562;47.620;18.786;2022-10-16T10:19:46;19.03;59.04
67759;SHT31;54562;47.620;18.786;2022-10-16T10:22:57;19.22;58.58
67759;SHT31;54562;47.620;18.786;2022-10-16T10:26:06;19.38;58.06
67759;SHT31;54562;47.620;18.786;2022-10-16T10:29:34;19.48;57.61
67759;SHT31;54562;47.620;18.786;2022-10-16T10:33:01;19.58;57.28
67759;SHT31;54562;47.620;18.786;2022-10-16T10:36:25;19.66;57.17
67759;SHT31;54562;47.620;18.786;2022-10-16T10:39:41;19.79;56.95
67759;SHT31;54562;47.620;18.786;2022-10-16T10:42:59;19.90;56.30
67759;SHT31;54562;47.620;18.786;2022-10-16T10:46:16;19.94;55.88
67759;SHT31;54562;47.620;18.786;2022-10-16T10:49:39;20.06;56.22
67759;SHT31;54562;47.620;18.786;2022-10-16T10:52:59;20.19;55.64
67759;SHT31;54562;47.620;18.786;2022-10-16T10:56:25;20.29;55.27
67759;SHT31;54562;47.620;18.786;2022-10-16T10:59:56;20.24;55.20
67759;SHT31;54562;47.620;18.786;2022-10-16T11:03:24;20.37;55.37
67759;SHT31;54562;47.620;18.786;2022-10-16T11:06:45;20.48;54.62
67759;SHT31;54562;47.620;18.786;2022-10-16T11:10:02;20.56;54.27
67759;SHT31;54562;47.620;18.786;2022-10-16T11:13:21;20.73;54.16
67759;SHT31;54562;47.620;18.786;2022-10-16T11:16:37;20.82;54.06
67759;SHT31;54562;47.620;18.786;2022-10-16T11:19:53;20.88;53.56
67759;SHT31;54562;47.620;18.786;2022-10-16T11:23:10;20.92;53.14
67759;SHT31;54562;47.620;18.786;2022-10-16T11:26:28;20.97;52.67
67759;SHT31;54562;47.620;18.786;2022-10-16T11:29:45;21.07;52.44
67759;SHT31;54562;47.620;18.786;2022-10-16T11:33:08;21.26;51.84
67759;SHT31;54562;47.620;18.786;2022-10-16T11:36:35;21.32;51.62
67759;SHT31;54562;47.620;18.786;2022-10-16T11:39:49;21.25;51.32
67759;SHT31;54562;47.620;18.786;2022-10-16T11:43:11;21.08;50.80
67759;SHT31;54562;47.620;18.786;2022-10-16T11:46:26;21.06;51.69
67759;SHT31;54562;47.620;18.786;2022-10-16T11:49:37;21.11;51.42
67759;SHT31;54562;47.620;18.786;2022-10-16T11:52:51;21.20;51.75
67759;SHT31;54562;47.620;18.786;2022-10-16T11:56:06;21.08;50.70
67759;SHT31;54562;47.620;18.786;2022-10-16T11:59:17;20.83;50.91
67759;SHT31;54562;47.620;18.786;2022-10-16T12:02:37;20.69;51.51
67759;SHT31;54562;47.620;18.786;2022-10-16T12:06:11;20.70;51.63
67759;SHT31;54562;47.620;18.786;2022-10-16T12:09:38;20.66;51.63
67759;SHT31;54562;47.620;18.786;2022-10-16T12:12:47;20.70;51.97
67759;SHT31;54562;47.620;18.786;2022-10-16T12:16:05;20.79;51.72
67759;SHT31;54562;47.620;18.786;2022-10-16T12:19:30;20.83;51.64
67759;SHT31;54562;47.620;18.786;2022-10-16T12:22:40;20.89;51.38
67759;SHT31;54562;47.620;18.786;2022-10-16T12:25:58;20.89;51.31
67759;SHT31;54562;47.620;18.786;2022-10-16T12:29:13;20.95;51.23
67759;SHT31;54562;47.620;18.786;2022-10-16T12:32:33;20.92;50.70
67759;SHT31;54562;47.620;18.786;2022-10-16T12:35:49;20.90;50.84
67759;SHT31;54562;47.620;18.786;2022-10-16T12:38:59;20.98;51.47
67759;SHT31;54562;47.620;18.786;2022-10-16T12:45:43;21.19;51.01
67759;SHT31;54562;47.620;18.786;2022-10-16T12:48:51;21.27;50.95
67759;SHT31;54562;47.620;18.786;2022-10-16T12:52:29;21.42;50.85
67759;SHT31;54562;47.620;18.786;2022-10-16T12:55:46;21.57;50.38
67759;SHT31;54562;47.620;18.786;2022-10-16T12:59:09;21.72;50.20
67759;SHT31;54562;47.620;18.786;2022-10-16T13:02:43;21.98;49.43
67759;SHT31;54562;47.620;18.786;2022-10-16T13:06:26;22.15;49.63
67759;SHT31;54562;47.620;18.786;2022-10-16T13:09:46;22.37;49.22
67759;SHT31;54562;47.620;18.786;2022-10-16T13:13:20;22.60;49.17
67759;SHT31;54562;47.620;18.786;2022-10-16T13:16:50;22.63;48.08
67759;SHT31;54562;47.620;18.786;2022-10-16T13:20:16;22.55;48.72
67759;SHT31;54562;47.620;18.786;2022-10-16T13:23:35;22.61;48.17
67759;SHT31;54562;47.620;18.786;2022-10-16T13:26:54;22.68;48.34
67759;SHT31;54562;47.620;18.786;2022-10-16T13:30:13;22.74;48.16
67759;SHT31;54562;47.620;18.786;2022-10-16T13:33:33;22.58;47.53
67759;SHT31;54562;47.620;18.786;2022-10-16T13:36:46;22.53;48.07
67759;SHT31;54562;47.620;18.786;2022-10-16T13:40:04;22.52;47.98
67759;SHT31;54562;47.620;18.786;2022-10-16T13:43:27;22.49;47.83
67759;SHT31;54562;47.620;18.786;2022-10-16T13:46:39;22.49;48.13
67759;SHT31;54562;47.620;18.786;2022-10-16T13:49:58;22.62;48.17
67759;SHT31;54562;47.620;18.786;2022-10-16T13:53:11;22.57;47.47
67759;SHT31;54562;47.620;18.786;2022-10-16T13:56:21;22.39;48.06
67759;SHT31;54562;47.620;18.786;2022-10-16T13:59:34;22.34;48.07
67759;SHT31;54562;47.620;18.786;2022-10-16T14:02:43;22.22;48.32
67759;SHT31;54562;47.620;18.786;2022-10-16T14:06:00;22.11;48.52
67759;SHT31;54562;47.620;18.786;2022-10-16T14:09:18;22.01;48.40
67759;SHT31;54562;47.620;18.786;2022-10-16T14:12:31;21.83;48.57
67759;SHT31;54562;47.620;18.786;2022-10-16T14:15:40;21.70;48.36
67759;SHT31;54562;47.620;18.786;2022-10-16T14:18:57;21.48;48.86
67759;SHT31;54562;47.620;18.786;2022-10-16T14:22:16;21.28;49.18
67759;SHT31;54562;47.620;18.786;2022-10-16T14:25:36;21.08;49.53
67759;SHT31;54562;47.620;18.786;2022-10-16T14:28:44;20.94;50.08
67759;SHT31;54562;47.620;18.786;2022-10-16T14:32:05;20.78;50.18
67759;SHT31;54562;47.620;18.786;2022-10-16T14:35:30;20.60;50.77
67759;SHT31;54562;47.620;18.786;2022-10-16T14:38:41;20.49;51.25
67759;SHT31;54562;47.620;18.786;2022-10-16T14:42:04;20.39;51.30
67759;SHT31;54562;47.620;18.786;2022-10-16T14:45:23;20.27;51.31
67759;SHT31;54562;47.620;18.786;2022-10-16T14:48:34;20.18;51.28
67759;SHT31;54562;47.620;18.786;2022-10-16T14:51:47;20.07;51.66
67759;SHT31;54562;47.620;18.786;2022-10-16T14:54:56;19.97;51.69
67759;SHT31;54562;47.620;18.786;2022-10-16T14:58:04;19.87;51.61
67759;SHT31;54562;47.620;18.786;2022-10-16T15:01:18;19.77;51.98
67759;SHT31;54562;47.620;18.786;2022-10-16T15:04:26;19.66;52.54
67759;SHT31;54562;47.620;18.786;2022-10-16T15:07:35;19.57;52.91
67759;SHT31;54562;47.620;18.786;2022-10-16T15:10:43;19.47;53.16
67759;SHT31;54562;47.620;18.786;2022-10-16T15:13:51;19.39;53.28
67759;SHT31;54562;47.620;18.786;2022-10-16T15:17:00;19.31;53.59
67759;SHT31;54562;47.620;18.786;2022-10-16T15:20:08;19.21;53.73
67759;SHT31;54562;47.620;18.786;2022-10-16T15:23:18;19.11;53.79
67759;SHT31;54562;47.620;18.786;2022-10-16T15:26:28;18.97;54.03
67759;SHT31;54562;47.620;18.786;2022-10-16T15:29:36;18.86;54.22
67759;SHT31;54562;47.620;18.786;2022-10-16T15:32:45;18.75;54.30
67759;SHT31;54562;47.620;18.786;2022-10-16T15:35:53;18.63;54.33
67759;SHT31;54562;47.620;18.786;2022-10-16T15:39:01;18.51;54.55
67759;SHT31;54562;47.620;18.786;2022-10-16T15:42:15;18.40;54.80
67759;SHT31;54562;47.620;18.786;2022-10-16T15:45:23;18.27;55.17
67759;SHT31;54562;47.620;18.786;2022-10-16T15:48:32;18.15;54.93
67759;SHT31;54562;47.620;18.786;2022-10-16T15:51:40;18.04;54.81
67759;SHT31;54562;47.620;18.786;2022-10-16T15:54:49;17.93;55.07
67759;SHT31;54562;47.620;18.786;2022-10-16T15:57:57;17.83;55.37
67759;SHT31;54562;47.620;18.786;2022-10-16T16:01:06;17.74;55.66
67759;SHT31;54562;47.620;18.786;2022-10-16T16:04:15;17.65;55.92
67759;SHT31;54562;47.620;18.786;2022-10-16T16:07:44;17.53;56.26
67759;SHT31;54562;47.620;18.786;2022-10-16T16:10:59;17.39;56.57
67759;SHT31;54562;47.620;18.786;2022-10-16T16:14:10;17.24;56.92
67759;SHT31;54562;47.620;18.786;2022-10-16T16:17:19;17.10;57.39
67759;SHT31;54562;47.620;18.786;2022-10-16T16:20:28;16.96;57.78
67759;SHT31;54562;47.620;18.786;2022-10-16T16:23:36;16.82;58.15
67759;SHT31;54562;47.620;18.786;2022-10-16T16:26:44;16.66;58.57
67759;SHT31;54562;47.620;18.786;2022-10-16T16:29:53;16.55;58.88
67759;SHT31;54562;47.620;18.786;2022-10-16T16:33:01;16.47;59.21
67759;SHT31;54562;47.620;18.786;2022-10-16T16:36:09;16.37;59.49
67759;SHT31;54562;47.620;18.786;2022-10-16T16:39:18;16.30;59.66
67759;SHT31;54562;47.620;18.786;2022-10-16T16:42:26;16.22;59.95
67759;SHT31;54562;47.620;18.786;2022-10-16T16:45:36;16.13;60.28
67759;SHT31;54562;47.620;18.786;2022-10-16T16:48:44;16.06;60.53
67759;SHT31;54562;47.620;18.786;2022-10-16T16:51:54;16.02;60.73
67759;SHT31;54562;47.620;18.786;2022-10-16T16:55:03;16.02;60.82
67759;SHT31;54562;47.620;18.786;2022-10-16T16:58:12;15.99;61.01
67759;SHT31;54562;47.620;18.786;2022-10-16T17:01:21;15.95;61.15
67759;SHT31;54562;47.620;18.786;2022-10-16T17:04:32;15.91;61.28
67759;SHT31;54562;47.620;18.786;2022-10-16T17:07:40;15.89;61.38
67759;SHT31;54562;47.620;18.786;2022-10-16T17:10:48;15.82;61.63
67759;SHT31;54562;47.620;18.786;2022-10-16T17:13:58;15.77;61.81
67759;SHT31;54562;47.620;18.786;2022-10-16T17:17:07;15.68;61.95
67759;SHT31;54562;47.620;18.786;2022-10-16T17:20:15;15.62;62.13
67759;SHT31;54562;47.620;18.786;2022-10-16T17:23:23;15.55;62.25
67759;SHT31;54562;47.620;18.786;2022-10-16T17:26:31;15.51;62.38
67759;SHT31;54562;47.620;18.786;2022-10-16T17:29:43;15.56;62.14
67759;SHT31;54562;47.620;18.786;2022-10-16T17:32:55;15.68;61.96
67759;SHT31;54562;47.620;18.786;2022-10-16T17:36:04;15.74;62.10
67759;SHT31;54562;47.620;18.786;2022-10-16T17:39:14;15.72;61.99
67759;SHT31;54562;47.620;18.786;2022-10-16T17:42:23;15.76;61.88
67759;SHT31;54562;47.620;18.786;2022-10-16T17:45:35;15.81;61.83
67759;SHT31;54562;47.620;18.786;2022-10-16T17:48:44;15.86;61.69
67759;SHT31;54562;47.620;18.786;2022-10-16T17:51:56;15.91;61.64
67759;SHT31;54562;47.620;18.786;2022-10-16T17:55:06;15.91;61.67
67759;SHT31;54562;47.620;18.786;2022-10-16T17:58:14;15.86;61.79
67759;SHT31;54562;47.620;18.786;2022-10-16T18:01:23;15.77;62.12
67759;SHT31;54562;47.620;18.786;2022-10-16T18:04:33;15.69;62.32
67759;SHT31;54562;47.620;18.786;2022-10-16T18:07:41;15.64;62.46
67759;SHT31;54562;47.620;18.786;2022-10-16T18:10:50;15.62;62.51
67759;SHT31;54562;47.620;18.786;2022-10-16T18:13:58;15.68;62.47
67759;SHT31;54562;47.620;18.786;2022-10-16T18:17:07;15.65;62.58
67759;SHT31;54562;47.620;18.786;2022-10-16T18:20:16;15.60;62.76
67759;SHT31;54562;47.620;18.786;2022-10-16T18:23:24;15.52;62.91
67759;SHT31;54562;47.620;18.786;2022-10-16T18:26:33;15.49;62.97
67759;SHT31;54562;47.620;18.786;2022-10-16T18:29:42;15.45;63.11
67759;SHT31;54562;47.620;18.786;2022-10-16T18:32:50;15.38;63.35
67759;SHT31;54562;47.620;18.786;2022-10-16T18:36:00;15.35;63.46
67759;SHT31;54562;47.620;18.786;2022-10-16T18:39:11;15.35;63.44
67759;SHT31;54562;47.620;18.786;2022-10-16T18:42:20;15.34;63.56
67759;SHT31;54562;47.620;18.786;2022-10-16T18:45:28;15.31;63.66
67759;SHT31;54562;47.620;18.786;2022-10-16T18:48:36;15.28;63.72
67759;SHT31;54562;47.620;18.786;2022-10-16T18:51:45;15.26;63.79
67759;SHT31;54562;47.620;18.786;2022-10-16T18:54:58;15.25;63.80
67759;SHT31;54562;47.620;18.786;2022-10-16T18:58:08;15.25;63.79
67759;SHT31;54562;47.620;18.786;2022-10-16T19:01:16;15.24;63.78
67759;SHT31;54562;47.620;18.786;2022-10-16T19:04:28;15.24;63.72
67759;SHT31;54562;47.620;18.786;2022-10-16T19:07:36;15.25;63.64
67759;SHT31;54562;47.620;18.786;2022-10-16T19:10:45;15.27;63.46
67759;SHT31;54562;47.620;18.786;2022-10-16T19:13:55;15.36;63.20
67759;SHT31;54562;47.620;18.786;2022-10-16T19:17:03;15.45;62.97
67759;SHT31;54562;47.620;18.786;2022-10-16T19:20:12;15.51;62.82
67759;SHT31;54562;47.620;18.786;2022-10-16T19:23:20;15.55;62.64
67759;SHT31;54562;47.620;18.786;2022-10-16T19:26:29;15.59;62.55
67759;SHT31;54562;47.620;18.786;2022-10-16T19:29:44;15.62;62.55
67759;SHT31;54562;47.620;18.786;2022-10-16T19:32:52;15.59;62.63
67759;SHT31;54562;47.620;18.786;2022-10-16T19:36:10;15.55;62.71
67759;SHT31;54562;47.620;18.786;2022-10-16T19:39:20;15.49;62.81
67759;SHT31;54562;47.620;18.786;2022-10-16T19:42:27;15.46;62.91
67759;SHT31;54562;47.620;18.786;2022-10-16T19:45:35;15.44;63.03
67759;SHT31;54562;47.620;18.786;2022-10-16T19:48:43;15.43;63.11
67759;SHT31;54562;47.620;18.786;2022-10-16T19:51:54;15.42;63.27
67759;SHT31;54562;47.620;18.786;2022-10-16T19:55:01;15.37;63.42
67759;SHT31;54562;47.620;18.786;2022-10-16T19:58:12;15.32;63.62
67759;SHT31;54562;47.620;18.786;2022-10-16T20:01:21;15.29;63.75
67759;SHT31;54562;47.620;18.786;2022-10-16T20:04:31;15.27;63.87
67759;SHT31;54562;47.620;18.786;2022-10-16T20:07:39;15.25;63.96